MSR989 HECA-EHAM
Flight info
| Callsign | MSR989 |
|---|---|
| Flight time | N/A |
| Altitude | 36000 |
| Route | HECA/23C CVO L617 NOZ L551 ANTAR UN133 PEREN UL863 EVIVI L863 OKANA DCT OKLOP/N0478F380 DCT TONDO DCT TEKNO DCT BEGLA DCT DEXIT DCT MAPOX L604 BIGGE DCT AMSAN T281 NORKU |
| Aircraft | B77W/H-SDE1E2E3FGHIJ2J3J4J5M1RWXY/LB1D1 |
Departure
| Time | N/A |
|---|---|
| Airport | Cairo International Airport (HECA) |
Arrival
| Time | 2026-04-27 17:04 |
|---|---|
| Airport | Amsterdam Airport Schiphol (EHAM) |
| Time | Latitude | Longitude | Altitude | Speed | Heading |
|---|---|---|---|---|---|
| 2026-04-27 12:44 | 30.84146 | 30.33175 | 31501 ft | 387 kts | 314° |
| 2026-04-27 12:45 | 30.86128 | 30.31006 | 31544 ft | 395 kts | 314° |
| 2026-04-27 12:45 | 30.90204 | 30.26543 | 31668 ft | 410 kts | 314° |
| 2026-04-27 12:46 | 30.94429 | 30.21914 | 31778 ft | 424 kts | 314° |
| 2026-04-27 12:46 | 30.98759 | 30.17165 | 32024 ft | 433 kts | 314° |
| 2026-04-27 12:46 | 31.00916 | 30.14801 | 32863 ft | 419 kts | 314° |
| 2026-04-27 12:47 | 31.03012 | 30.12503 | 33565 ft | 411 kts | 314° |
| 2026-04-27 12:47 | 31.05090 | 30.10218 | 33842 ft | 412 kts | 314° |
| 2026-04-27 12:47 | 31.07182 | 30.07913 | 33926 ft | 416 kts | 314° |
| 2026-04-27 12:47 | 31.09298 | 30.05582 | 34047 ft | 419 kts | 314° |
| 2026-04-27 12:48 | 31.11420 | 30.03242 | 34238 ft | 420 kts | 314° |
| 2026-04-27 12:48 | 31.13543 | 30.00903 | 34464 ft | 420 kts | 314° |
| 2026-04-27 12:48 | 31.15668 | 29.98560 | 34645 ft | 420 kts | 314° |
| 2026-04-27 12:48 | 31.17843 | 29.96331 | 34805 ft | 423 kts | 319° |
| 2026-04-27 12:49 | 31.20236 | 29.94302 | 34949 ft | 427 kts | 323° |
| 2026-04-27 12:49 | 31.22804 | 29.92518 | 35086 ft | 431 kts | 328° |
| 2026-04-27 12:49 | 31.25452 | 29.90875 | 35242 ft | 432 kts | 328° |
| 2026-04-27 12:49 | 31.28119 | 29.89232 | 35350 ft | 434 kts | 328° |
| 2026-04-27 12:50 | 31.30796 | 29.87582 | 35474 ft | 436 kts | 328° |
| 2026-04-27 12:50 | 31.33479 | 29.85921 | 35622 ft | 436 kts | 328° |
| 2026-04-27 12:50 | 31.36127 | 29.84275 | 35742 ft | 437 kts | 327° |
| 2026-04-27 12:50 | 31.38810 | 29.82600 | 35889 ft | 438 kts | 327° |
| 2026-04-27 12:51 | 31.41503 | 29.80915 | 35958 ft | 440 kts | 327° |
| 2026-04-27 12:51 | 31.46916 | 29.77520 | 36010 ft | 442 kts | 327° |
| 2026-04-27 12:52 | 31.52320 | 29.74129 | 36014 ft | 439 kts | 327° |
| 2026-04-27 12:52 | 31.57672 | 29.70764 | 36010 ft | 439 kts | 328° |
| 2026-04-27 12:53 | 31.65751 | 29.65675 | 36007 ft | 440 kts | 328° |
| 2026-04-27 12:53 | 31.71151 | 29.62269 | 36004 ft | 441 kts | 328° |
| 2026-04-27 12:54 | 31.76520 | 29.58877 | 35998 ft | 441 kts | 327° |
| 2026-04-27 12:54 | 31.81927 | 29.55458 | 35999 ft | 441 kts | 327° |
| 2026-04-27 12:55 | 31.87335 | 29.52033 | 36006 ft | 441 kts | 328° |
| 2026-04-27 12:55 | 31.92740 | 29.48604 | 35996 ft | 441 kts | 328° |
| 2026-04-27 12:56 | 31.98103 | 29.45199 | 35995 ft | 440 kts | 328° |
| 2026-04-27 12:56 | 32.03483 | 29.41774 | 35995 ft | 439 kts | 328° |
| 2026-04-27 12:57 | 32.08849 | 29.38344 | 35995 ft | 438 kts | 327° |
| 2026-04-27 12:57 | 32.14204 | 29.34914 | 36007 ft | 438 kts | 328° |
| 2026-04-27 12:58 | 32.19534 | 29.31498 | 36003 ft | 440 kts | 328° |
| 2026-04-27 12:58 | 32.24920 | 29.28046 | 35999 ft | 441 kts | 328° |
| 2026-04-27 12:59 | 32.30314 | 29.24592 | 36007 ft | 441 kts | 328° |
| 2026-04-27 12:59 | 32.35706 | 29.21133 | 36000 ft | 441 kts | 328° |
| 2026-04-27 13:00 | 32.41096 | 29.17670 | 36000 ft | 440 kts | 328° |
| 2026-04-27 13:00 | 32.46437 | 29.14233 | 36000 ft | 439 kts | 328° |
| 2026-04-27 13:01 | 32.51802 | 29.10776 | 36000 ft | 438 kts | 328° |
| 2026-04-27 13:01 | 32.57154 | 29.07321 | 36001 ft | 437 kts | 328° |
| 2026-04-27 13:02 | 32.62492 | 29.03872 | 36001 ft | 437 kts | 328° |
| 2026-04-27 13:02 | 32.67787 | 29.00445 | 36017 ft | 437 kts | 328° |
| 2026-04-27 13:03 | 32.73139 | 28.96976 | 36015 ft | 440 kts | 328° |
| 2026-04-27 13:03 | 32.78517 | 28.93486 | 36014 ft | 441 kts | 328° |
| 2026-04-27 13:04 | 32.83909 | 28.89982 | 36002 ft | 442 kts | 328° |
| 2026-04-27 13:04 | 32.89273 | 28.86492 | 36008 ft | 442 kts | 328° |
| 2026-04-27 13:05 | 32.94664 | 28.82980 | 36009 ft | 441 kts | 328° |
| 2026-04-27 13:05 | 33.00038 | 28.79473 | 36000 ft | 440 kts | 328° |
| 2026-04-27 13:06 | 33.05399 | 28.75971 | 36003 ft | 439 kts | 328° |
| 2026-04-27 13:06 | 33.10710 | 28.72495 | 36003 ft | 438 kts | 328° |
| 2026-04-27 13:07 | 33.16052 | 28.68995 | 36002 ft | 438 kts | 328° |
| 2026-04-27 13:07 | 33.21384 | 28.65496 | 36007 ft | 437 kts | 328° |
| 2026-04-27 13:08 | 33.26716 | 28.61992 | 36011 ft | 438 kts | 328° |
| 2026-04-27 13:08 | 33.32014 | 28.58505 | 36014 ft | 438 kts | 328° |
| 2026-04-27 13:09 | 33.37347 | 28.54991 | 36015 ft | 438 kts | 328° |
| 2026-04-27 13:09 | 33.42682 | 28.51470 | 36016 ft | 438 kts | 328° |
| 2026-04-27 13:10 | 33.48022 | 28.47941 | 36017 ft | 438 kts | 328° |
| 2026-04-27 13:10 | 33.53329 | 28.44429 | 36031 ft | 439 kts | 328° |
| 2026-04-27 13:11 | 33.58675 | 28.40886 | 36022 ft | 439 kts | 328° |
| 2026-04-27 13:11 | 33.64026 | 28.37335 | 36021 ft | 440 kts | 328° |
| 2026-04-27 13:12 | 33.69373 | 28.33781 | 36016 ft | 439 kts | 328° |
| 2026-04-27 13:12 | 33.74686 | 28.30244 | 36017 ft | 439 kts | 328° |
| 2026-04-27 13:13 | 33.80027 | 28.26685 | 36036 ft | 439 kts | 328° |
| 2026-04-27 13:13 | 33.85357 | 28.23102 | 36023 ft | 439 kts | 327° |
| 2026-04-27 13:14 | 33.90680 | 28.19502 | 36011 ft | 439 kts | 327° |
| 2026-04-27 13:14 | 33.95965 | 28.15924 | 36020 ft | 438 kts | 327° |
| 2026-04-27 13:15 | 34.01283 | 28.12321 | 36019 ft | 438 kts | 327° |
| 2026-04-27 13:15 | 34.06596 | 28.08718 | 36020 ft | 438 kts | 327° |
| 2026-04-27 13:16 | 34.11909 | 28.05108 | 36015 ft | 438 kts | 327° |
| 2026-04-27 13:16 | 34.17187 | 28.01517 | 36020 ft | 438 kts | 327° |
| 2026-04-27 13:17 | 34.22501 | 27.97897 | 36016 ft | 439 kts | 327° |
| 2026-04-27 13:17 | 34.27816 | 27.94271 | 36014 ft | 439 kts | 327° |
| 2026-04-27 13:18 | 34.33135 | 27.90636 | 36017 ft | 439 kts | 327° |
| 2026-04-27 13:18 | 34.38420 | 27.87020 | 36017 ft | 440 kts | 327° |
| 2026-04-27 13:19 | 34.43744 | 27.83371 | 36014 ft | 440 kts | 327° |
| 2026-04-27 13:19 | 34.49069 | 27.79716 | 36014 ft | 440 kts | 327° |
| 2026-04-27 13:20 | 34.54399 | 27.76052 | 36014 ft | 440 kts | 327° |
| 2026-04-27 13:20 | 34.59723 | 27.72379 | 36011 ft | 440 kts | 327° |
| 2026-04-27 13:21 | 34.65011 | 27.68721 | 36023 ft | 441 kts | 327° |
| 2026-04-27 13:21 | 34.70340 | 27.65028 | 36009 ft | 441 kts | 327° |
| 2026-04-27 13:22 | 34.75668 | 27.61332 | 36008 ft | 441 kts | 327° |
| 2026-04-27 13:22 | 34.80998 | 27.57630 | 36008 ft | 441 kts | 327° |
| 2026-04-27 13:23 | 34.86291 | 27.53947 | 36008 ft | 441 kts | 327° |
| 2026-04-27 13:23 | 34.91619 | 27.50234 | 36020 ft | 441 kts | 327° |
| 2026-04-27 13:24 | 34.96946 | 27.46516 | 36016 ft | 441 kts | 327° |
| 2026-04-27 13:24 | 35.02275 | 27.42791 | 36007 ft | 441 kts | 327° |
| 2026-04-27 13:25 | 35.07599 | 27.39064 | 36008 ft | 441 kts | 327° |
| 2026-04-27 13:25 | 35.12888 | 27.35357 | 36007 ft | 441 kts | 327° |
| 2026-04-27 13:26 | 35.18209 | 27.31620 | 36008 ft | 441 kts | 327° |
| 2026-04-27 13:26 | 35.23526 | 27.27881 | 36008 ft | 440 kts | 327° |
| 2026-04-27 13:27 | 35.28839 | 27.24138 | 36008 ft | 440 kts | 327° |
| 2026-04-27 13:27 | 35.34113 | 27.20418 | 36013 ft | 440 kts | 327° |
| 2026-04-27 13:28 | 35.39420 | 27.16668 | 35988 ft | 440 kts | 327° |
| 2026-04-27 13:28 | 35.44835 | 27.13146 | 36004 ft | 442 kts | 332° |
| 2026-04-27 13:29 | 35.50448 | 27.10018 | 35993 ft | 443 kts | 333° |
| 2026-04-27 13:29 | 35.56025 | 27.06903 | 36002 ft | 443 kts | 332° |
| 2026-04-27 13:30 | 35.61633 | 27.03740 | 36007 ft | 444 kts | 332° |
| 2026-04-27 13:30 | 35.67244 | 27.00562 | 36014 ft | 444 kts | 332° |
| 2026-04-27 13:31 | 35.72391 | 26.97642 | 36038 ft | 444 kts | 332° |
| 2026-04-27 13:31 | 35.77568 | 26.94701 | 36027 ft | 445 kts | 332° |
| 2026-04-27 13:32 | 35.83023 | 26.91598 | 36024 ft | 445 kts | 332° |
| 2026-04-27 13:32 | 35.88648 | 26.88394 | 36022 ft | 445 kts | 332° |
| 2026-04-27 13:33 | 35.94267 | 26.85184 | 36029 ft | 445 kts | 332° |
| 2026-04-27 13:33 | 35.99846 | 26.81991 | 36026 ft | 445 kts | 332° |
| 2026-04-27 13:34 | 36.05462 | 26.78772 | 36021 ft | 445 kts | 332° |
| 2026-04-27 13:34 | 36.11071 | 26.75552 | 36019 ft | 444 kts | 332° |
| 2026-04-27 13:35 | 36.16677 | 26.72328 | 36021 ft | 444 kts | 332° |
| 2026-04-27 13:35 | 36.22245 | 26.69122 | 36019 ft | 444 kts | 332° |
| 2026-04-27 13:36 | 36.27849 | 26.65889 | 36020 ft | 445 kts | 332° |
| 2026-04-27 13:36 | 36.33458 | 26.62642 | 36019 ft | 445 kts | 332° |
| 2026-04-27 13:37 | 36.39064 | 26.59388 | 36022 ft | 445 kts | 332° |
| 2026-04-27 13:37 | 36.44677 | 26.56124 | 36023 ft | 445 kts | 332° |
| 2026-04-27 13:38 | 36.50252 | 26.52878 | 36025 ft | 446 kts | 332° |
| 2026-04-27 13:38 | 36.55872 | 26.49603 | 36026 ft | 446 kts | 332° |
| 2026-04-27 13:39 | 36.61493 | 26.46326 | 36025 ft | 446 kts | 332° |
| 2026-04-27 13:39 | 36.67119 | 26.43040 | 36025 ft | 447 kts | 332° |
| 2026-04-27 13:40 | 36.72706 | 26.39771 | 36025 ft | 447 kts | 332° |
| 2026-04-27 13:40 | 36.78331 | 26.36474 | 36026 ft | 447 kts | 332° |
| 2026-04-27 13:41 | 36.83960 | 26.33169 | 36036 ft | 447 kts | 332° |
| 2026-04-27 13:41 | 36.89595 | 26.29855 | 36038 ft | 447 kts | 332° |
| 2026-04-27 13:42 | 36.95226 | 26.26538 | 36018 ft | 448 kts | 332° |
| 2026-04-27 13:42 | 37.00815 | 26.23217 | 36045 ft | 448 kts | 332° |
| 2026-04-27 13:43 | 37.06415 | 26.19793 | 36028 ft | 448 kts | 332° |
| 2026-04-27 13:43 | 37.12008 | 26.16359 | 36023 ft | 448 kts | 332° |
| 2026-04-27 13:44 | 37.17604 | 26.12926 | 36039 ft | 448 kts | 332° |
| 2026-04-27 13:44 | 37.23167 | 26.09514 | 36046 ft | 448 kts | 332° |
| 2026-04-27 13:45 | 37.28765 | 26.06076 | 36038 ft | 448 kts | 332° |
| 2026-04-27 13:45 | 37.34365 | 26.02630 | 36044 ft | 448 kts | 332° |
| 2026-04-27 13:46 | 37.39965 | 25.99179 | 36054 ft | 448 kts | 332° |
| 2026-04-27 13:46 | 37.45527 | 25.95745 | 36060 ft | 448 kts | 332° |
| 2026-04-27 13:47 | 37.51120 | 25.92285 | 36066 ft | 448 kts | 332° |
| 2026-04-27 13:47 | 37.56720 | 25.88816 | 36061 ft | 448 kts | 332° |
| 2026-04-27 13:48 | 37.62322 | 25.85342 | 36059 ft | 448 kts | 332° |
| 2026-04-27 13:48 | 37.67918 | 25.81869 | 36060 ft | 448 kts | 332° |
| 2026-04-27 13:49 | 37.73480 | 25.78410 | 36061 ft | 448 kts | 332° |
| 2026-04-27 13:49 | 37.79076 | 25.74924 | 36063 ft | 448 kts | 332° |
| 2026-04-27 13:50 | 37.84669 | 25.71433 | 36067 ft | 448 kts | 332° |
| 2026-04-27 13:50 | 37.90260 | 25.67937 | 36070 ft | 448 kts | 332° |
| 2026-04-27 13:51 | 37.95814 | 25.64459 | 36069 ft | 448 kts | 332° |
| 2026-04-27 13:51 | 38.01402 | 25.60953 | 36083 ft | 448 kts | 332° |
| 2026-04-27 13:52 | 38.06984 | 25.57446 | 36084 ft | 448 kts | 332° |
| 2026-04-27 13:52 | 38.12566 | 25.53932 | 36078 ft | 448 kts | 332° |
| 2026-04-27 13:53 | 38.20929 | 25.48656 | 36090 ft | 447 kts | 332° |
| 2026-04-27 13:54 | 38.26461 | 25.45159 | 36096 ft | 447 kts | 332° |
| 2026-04-27 13:54 | 38.32029 | 25.41633 | 36093 ft | 447 kts | 332° |
| 2026-04-27 13:55 | 38.37598 | 25.38100 | 36092 ft | 447 kts | 331° |
| 2026-04-27 13:55 | 38.43163 | 25.34564 | 36096 ft | 447 kts | 331° |
| 2026-04-27 13:56 | 38.48688 | 25.31047 | 36100 ft | 447 kts | 331° |
| 2026-04-27 13:56 | 38.54244 | 25.27504 | 36107 ft | 447 kts | 331° |
| 2026-04-27 13:57 | 38.59804 | 25.23952 | 36105 ft | 446 kts | 331° |
| 2026-04-27 13:57 | 38.65349 | 25.20404 | 36108 ft | 446 kts | 331° |
| 2026-04-27 13:58 | 38.70868 | 25.16866 | 36112 ft | 446 kts | 331° |
| 2026-04-27 13:58 | 38.76412 | 25.13306 | 36130 ft | 446 kts | 331° |
| 2026-04-27 13:59 | 38.81957 | 25.09739 | 36123 ft | 446 kts | 331° |
| 2026-04-27 13:59 | 38.87457 | 25.06195 | 36122 ft | 445 kts | 331° |
| 2026-04-27 14:00 | 38.92992 | 25.02622 | 36124 ft | 445 kts | 331° |
| 2026-04-27 14:00 | 38.98517 | 24.99049 | 36127 ft | 444 kts | 331° |
| 2026-04-27 14:01 | 39.04040 | 24.95470 | 36138 ft | 444 kts | 331° |
| 2026-04-27 14:01 | 39.09562 | 24.91887 | 36130 ft | 445 kts | 331° |
| 2026-04-27 14:02 | 39.15085 | 24.88407 | 36134 ft | 445 kts | 332° |
| 2026-04-27 14:02 | 39.20670 | 24.84974 | 36135 ft | 445 kts | 332° |
| 2026-04-27 14:03 | 39.26253 | 24.81523 | 36143 ft | 445 kts | 332° |
| 2026-04-27 14:03 | 39.31830 | 24.78055 | 36143 ft | 445 kts | 332° |
| 2026-04-27 14:04 | 39.37371 | 24.74599 | 36141 ft | 445 kts | 332° |
| 2026-04-27 14:04 | 39.42951 | 24.71113 | 36146 ft | 445 kts | 332° |
| 2026-04-27 14:05 | 39.48527 | 24.67625 | 36165 ft | 445 kts | 332° |
| 2026-04-27 14:05 | 39.54104 | 24.64132 | 36151 ft | 445 kts | 332° |
| 2026-04-27 14:06 | 39.59682 | 24.60635 | 36159 ft | 445 kts | 332° |
| 2026-04-27 14:06 | 39.65219 | 24.57156 | 36140 ft | 445 kts | 332° |
| 2026-04-27 14:07 | 39.70789 | 24.53650 | 36158 ft | 445 kts | 332° |
| 2026-04-27 14:07 | 39.76354 | 24.50141 | 36157 ft | 445 kts | 332° |
| 2026-04-27 14:08 | 39.81919 | 24.46625 | 36160 ft | 444 kts | 331° |
| 2026-04-27 14:08 | 39.87476 | 24.43108 | 36161 ft | 444 kts | 331° |
| 2026-04-27 14:09 | 39.92993 | 24.39609 | 36164 ft | 444 kts | 331° |
| 2026-04-27 14:09 | 39.98544 | 24.36083 | 36180 ft | 444 kts | 331° |
| 2026-04-27 14:10 | 40.04094 | 24.32551 | 36168 ft | 444 kts | 331° |
| 2026-04-27 14:10 | 40.09640 | 24.29015 | 36168 ft | 443 kts | 331° |
| 2026-04-27 14:11 | 40.15143 | 24.25500 | 36173 ft | 443 kts | 331° |
| 2026-04-27 14:11 | 40.20678 | 24.21959 | 36182 ft | 443 kts | 331° |
| 2026-04-27 14:12 | 40.26215 | 24.18409 | 36187 ft | 443 kts | 331° |
| 2026-04-27 14:12 | 40.31756 | 24.14850 | 36171 ft | 443 kts | 331° |
| 2026-04-27 14:13 | 40.37289 | 24.11291 | 36175 ft | 443 kts | 331° |
| 2026-04-27 14:13 | 40.42788 | 24.07746 | 36180 ft | 443 kts | 331° |
| 2026-04-27 14:14 | 40.48318 | 24.04174 | 36185 ft | 443 kts | 330° |
| 2026-04-27 14:14 | 40.53849 | 24.00595 | 36181 ft | 443 kts | 330° |
| 2026-04-27 14:15 | 40.59376 | 23.97013 | 36183 ft | 443 kts | 330° |
| 2026-04-27 14:15 | 40.64893 | 23.93509 | 36182 ft | 443 kts | 331° |
| 2026-04-27 14:16 | 40.70467 | 23.90026 | 36189 ft | 444 kts | 331° |
| 2026-04-27 14:16 | 40.76044 | 23.86528 | 36174 ft | 444 kts | 331° |
| 2026-04-27 14:17 | 40.81620 | 23.83013 | 36172 ft | 444 kts | 331° |
| 2026-04-27 14:17 | 40.87195 | 23.79489 | 36170 ft | 445 kts | 331° |
| 2026-04-27 14:18 | 40.92739 | 23.75977 | 36189 ft | 445 kts | 331° |
| 2026-04-27 14:18 | 40.98321 | 23.72435 | 36168 ft | 445 kts | 331° |
| 2026-04-27 14:19 | 41.03909 | 23.68883 | 36160 ft | 445 kts | 331° |
| 2026-04-27 14:19 | 41.09493 | 23.65326 | 36168 ft | 445 kts | 331° |
| 2026-04-27 14:20 | 41.15039 | 23.61787 | 36166 ft | 445 kts | 331° |
| 2026-04-27 14:20 | 41.20614 | 23.58222 | 36146 ft | 445 kts | 331° |
| 2026-04-27 14:21 | 41.26180 | 23.54661 | 36152 ft | 444 kts | 331° |
| 2026-04-27 14:21 | 41.31743 | 23.51096 | 36148 ft | 444 kts | 331° |
| 2026-04-27 14:22 | 41.37261 | 23.47556 | 36164 ft | 443 kts | 331° |
| 2026-04-27 14:22 | 41.42812 | 23.43979 | 36144 ft | 443 kts | 331° |
| 2026-04-27 14:23 | 41.48354 | 23.40369 | 36140 ft | 443 kts | 331° |
| 2026-04-27 14:23 | 41.53888 | 23.36753 | 36137 ft | 443 kts | 331° |
| 2026-04-27 14:24 | 41.59414 | 23.33136 | 36139 ft | 442 kts | 331° |
| 2026-04-27 14:24 | 41.64903 | 23.29540 | 36141 ft | 442 kts | 331° |
| 2026-04-27 14:25 | 41.70425 | 23.25916 | 36142 ft | 442 kts | 331° |
| 2026-04-27 14:25 | 41.75945 | 23.22285 | 36133 ft | 442 kts | 331° |
| 2026-04-27 14:26 | 41.81465 | 23.18648 | 36137 ft | 442 kts | 331° |
| 2026-04-27 14:26 | 41.86952 | 23.15026 | 36146 ft | 442 kts | 331° |
| 2026-04-27 14:27 | 41.92469 | 23.11376 | 36142 ft | 442 kts | 331° |
| 2026-04-27 14:27 | 41.97992 | 23.07716 | 36133 ft | 442 kts | 331° |
| 2026-04-27 14:28 | 42.03499 | 23.04059 | 36129 ft | 442 kts | 331° |
| 2026-04-27 14:28 | 42.08968 | 23.00420 | 36132 ft | 441 kts | 331° |
| 2026-04-27 14:29 | 42.14465 | 22.96756 | 36128 ft | 441 kts | 331° |
| 2026-04-27 14:29 | 42.19952 | 22.93090 | 36124 ft | 440 kts | 331° |
| 2026-04-27 14:30 | 42.24514 | 22.90037 | 36125 ft | 440 kts | 331° |
| 2026-04-27 14:30 | 42.30883 | 22.85766 | 36145 ft | 440 kts | 331° |
| 2026-04-27 14:31 | 42.36363 | 22.82081 | 36138 ft | 440 kts | 331° |
| 2026-04-27 14:31 | 42.40916 | 22.79012 | 36130 ft | 440 kts | 331° |
| 2026-04-27 14:32 | 42.46379 | 22.75324 | 36141 ft | 439 kts | 330° |
| 2026-04-27 14:32 | 42.51836 | 22.71631 | 36132 ft | 438 kts | 330° |
| 2026-04-27 14:33 | 42.58165 | 22.67341 | 36143 ft | 437 kts | 330° |
| 2026-04-27 14:33 | 42.62685 | 22.64270 | 36144 ft | 437 kts | 330° |
| 2026-04-27 14:34 | 42.68123 | 22.60568 | 36139 ft | 437 kts | 330° |
| 2026-04-27 14:34 | 42.73559 | 22.56858 | 36147 ft | 437 kts | 330° |
| 2026-04-27 14:35 | 42.79000 | 22.53139 | 36152 ft | 438 kts | 330° |
| 2026-04-27 14:35 | 42.84431 | 22.49399 | 36134 ft | 437 kts | 329° |
| 2026-04-27 14:36 | 42.89586 | 22.45159 | 36141 ft | 435 kts | 325° |
| 2026-04-27 14:36 | 42.94720 | 22.40765 | 36166 ft | 436 kts | 325° |
| 2026-04-27 14:37 | 42.99865 | 22.36365 | 36151 ft | 437 kts | 325° |
| 2026-04-27 14:37 | 43.05022 | 22.31965 | 36146 ft | 437 kts | 325° |
| 2026-04-27 14:38 | 43.10161 | 22.27580 | 36169 ft | 438 kts | 325° |
| 2026-04-27 14:38 | 43.15337 | 22.23154 | 36147 ft | 438 kts | 325° |
| 2026-04-27 14:39 | 43.20469 | 22.18758 | 36148 ft | 438 kts | 325° |
| 2026-04-27 14:39 | 43.25637 | 22.14322 | 36144 ft | 438 kts | 325° |
| 2026-04-27 14:40 | 43.30806 | 22.09875 | 36141 ft | 438 kts | 325° |
| 2026-04-27 14:40 | 43.35971 | 22.05424 | 36137 ft | 438 kts | 325° |
| 2026-04-27 14:41 | 43.41102 | 22.00992 | 36132 ft | 438 kts | 325° |
| 2026-04-27 14:41 | 43.46269 | 21.96519 | 36139 ft | 438 kts | 325° |
| 2026-04-27 14:42 | 43.51403 | 21.92068 | 36137 ft | 438 kts | 325° |
| 2026-04-27 14:42 | 43.56558 | 21.87588 | 36142 ft | 438 kts | 325° |
| 2026-04-27 14:43 | 43.61708 | 21.83103 | 36162 ft | 438 kts | 325° |
| 2026-04-27 14:43 | 43.66856 | 21.78611 | 36167 ft | 438 kts | 325° |
| 2026-04-27 14:44 | 43.71975 | 21.74135 | 36157 ft | 438 kts | 324° |
| 2026-04-27 14:44 | 43.77120 | 21.69626 | 36158 ft | 438 kts | 325° |
| 2026-04-27 14:45 | 43.82273 | 21.65101 | 36155 ft | 438 kts | 325° |
| 2026-04-27 14:45 | 43.87419 | 21.60575 | 36165 ft | 438 kts | 325° |
| 2026-04-27 14:46 | 43.92533 | 21.56064 | 36166 ft | 439 kts | 325° |
| 2026-04-27 14:46 | 43.97684 | 21.51513 | 36157 ft | 439 kts | 325° |
| 2026-04-27 14:47 | 44.02841 | 21.46948 | 36158 ft | 439 kts | 325° |
| 2026-04-27 14:47 | 44.07952 | 21.42413 | 36157 ft | 438 kts | 325° |
| 2026-04-27 14:48 | 44.13089 | 21.37846 | 36174 ft | 438 kts | 325° |
| 2026-04-27 14:48 | 44.20701 | 21.30842 | 36156 ft | 436 kts | 322° |
| 2026-04-27 14:49 | 44.25561 | 21.25881 | 36152 ft | 435 kts | 321° |
| 2026-04-27 14:49 | 44.30432 | 21.20861 | 36155 ft | 435 kts | 322° |
| 2026-04-27 14:50 | 44.35312 | 21.15846 | 36156 ft | 435 kts | 322° |
| 2026-04-27 14:50 | 44.40185 | 21.10843 | 36164 ft | 435 kts | 322° |
| 2026-04-27 14:51 | 44.45031 | 21.05863 | 36153 ft | 435 kts | 322° |
| 2026-04-27 14:51 | 44.49914 | 21.00835 | 36162 ft | 435 kts | 322° |
| 2026-04-27 14:52 | 44.54793 | 20.95799 | 36160 ft | 436 kts | 322° |
| 2026-04-27 14:52 | 44.59675 | 20.90751 | 36162 ft | 436 kts | 322° |
| 2026-04-27 14:53 | 44.64525 | 20.85722 | 36170 ft | 437 kts | 322° |
| 2026-04-27 14:53 | 44.69414 | 20.80645 | 36161 ft | 437 kts | 322° |
| 2026-04-27 14:54 | 44.74298 | 20.75561 | 36164 ft | 437 kts | 322° |
| 2026-04-27 14:54 | 44.79180 | 20.70468 | 36165 ft | 437 kts | 322° |
| 2026-04-27 14:55 | 44.84027 | 20.65401 | 36166 ft | 436 kts | 322° |
| 2026-04-27 14:55 | 44.88901 | 20.60295 | 36154 ft | 436 kts | 322° |
| 2026-04-27 14:56 | 44.93764 | 20.55188 | 36163 ft | 436 kts | 322° |
| 2026-04-27 14:56 | 44.98605 | 20.50094 | 36162 ft | 435 kts | 322° |
| 2026-04-27 14:57 | 45.03459 | 20.44976 | 36171 ft | 435 kts | 322° |
| 2026-04-27 14:57 | 45.08313 | 20.39847 | 36172 ft | 435 kts | 322° |
| 2026-04-27 14:58 | 45.13133 | 20.34741 | 36183 ft | 435 kts | 322° |
| 2026-04-27 14:58 | 45.17979 | 20.29598 | 36178 ft | 435 kts | 322° |
| 2026-04-27 14:59 | 45.22824 | 20.24444 | 36173 ft | 435 kts | 322° |
| 2026-04-27 14:59 | 45.27665 | 20.19284 | 36177 ft | 435 kts | 322° |
| 2026-04-27 15:00 | 45.32472 | 20.14147 | 36177 ft | 435 kts | 322° |
| 2026-04-27 15:00 | 45.37303 | 20.08974 | 36178 ft | 434 kts | 322° |
| 2026-04-27 15:01 | 45.42126 | 20.03799 | 36178 ft | 434 kts | 322° |
| 2026-04-27 15:01 | 45.46917 | 19.98648 | 36173 ft | 434 kts | 322° |
| 2026-04-27 15:02 | 45.51739 | 19.93451 | 36171 ft | 434 kts | 322° |
| 2026-04-27 15:02 | 45.56517 | 19.88290 | 36174 ft | 433 kts | 322° |
| 2026-04-27 15:03 | 45.61316 | 19.83095 | 36173 ft | 433 kts | 322° |
| 2026-04-27 15:03 | 45.66106 | 19.77898 | 36188 ft | 432 kts | 322° |
| 2026-04-27 15:04 | 45.70891 | 19.72695 | 36177 ft | 432 kts | 322° |
| 2026-04-27 15:04 | 45.75668 | 19.67490 | 36179 ft | 431 kts | 322° |
| 2026-04-27 15:05 | 45.80405 | 19.62316 | 36177 ft | 431 kts | 322° |
| 2026-04-27 15:05 | 45.85164 | 19.57108 | 36177 ft | 430 kts | 322° |
| 2026-04-27 15:06 | 45.89921 | 19.51890 | 36177 ft | 430 kts | 322° |
| 2026-04-27 15:06 | 45.94676 | 19.46662 | 36182 ft | 430 kts | 322° |
| 2026-04-27 15:07 | 45.99392 | 19.41465 | 36184 ft | 430 kts | 322° |
| 2026-04-27 15:07 | 46.04138 | 19.36225 | 36173 ft | 430 kts | 322° |
| 2026-04-27 15:08 | 46.08811 | 19.30847 | 36178 ft | 430 kts | 320° |
| 2026-04-27 15:08 | 46.13397 | 19.25333 | 36176 ft | 429 kts | 320° |
| 2026-04-27 15:09 | 46.17949 | 19.19852 | 36193 ft | 429 kts | 320° |
| 2026-04-27 15:09 | 46.22536 | 19.14348 | 36172 ft | 428 kts | 320° |
| 2026-04-27 15:10 | 46.27119 | 19.08853 | 36177 ft | 428 kts | 320° |
| 2026-04-27 15:10 | 46.31685 | 19.03370 | 36180 ft | 427 kts | 320° |
| 2026-04-27 15:11 | 46.36225 | 18.97906 | 36174 ft | 426 kts | 320° |
| 2026-04-27 15:11 | 46.40779 | 18.92412 | 36179 ft | 426 kts | 320° |
| 2026-04-27 15:12 | 46.45326 | 18.86913 | 36191 ft | 426 kts | 320° |
| 2026-04-27 15:12 | 46.49837 | 18.81446 | 36183 ft | 425 kts | 320° |
| 2026-04-27 15:13 | 46.54374 | 18.75935 | 36176 ft | 424 kts | 320° |
| 2026-04-27 15:13 | 46.58894 | 18.70432 | 36174 ft | 424 kts | 320° |
| 2026-04-27 15:14 | 46.63379 | 18.64960 | 36180 ft | 423 kts | 320° |
| 2026-04-27 15:14 | 46.67886 | 18.59448 | 36179 ft | 423 kts | 320° |
| 2026-04-27 15:15 | 46.72388 | 18.53929 | 36187 ft | 423 kts | 320° |
| 2026-04-27 15:15 | 46.76884 | 18.48407 | 36178 ft | 422 kts | 320° |
| 2026-04-27 15:16 | 46.81344 | 18.42915 | 36179 ft | 422 kts | 320° |
| 2026-04-27 15:16 | 46.85827 | 18.37383 | 36180 ft | 422 kts | 320° |
| 2026-04-27 15:17 | 46.90306 | 18.31845 | 36183 ft | 422 kts | 320° |
| 2026-04-27 15:17 | 46.94780 | 18.26299 | 36168 ft | 422 kts | 320° |
| 2026-04-27 15:18 | 46.99223 | 18.20778 | 36187 ft | 422 kts | 320° |
| 2026-04-27 15:18 | 47.03693 | 18.15211 | 36181 ft | 422 kts | 320° |
| 2026-04-27 15:19 | 47.08167 | 18.09629 | 36186 ft | 422 kts | 319° |
| 2026-04-27 15:19 | 47.12638 | 18.04034 | 36179 ft | 422 kts | 319° |
| 2026-04-27 15:20 | 47.17105 | 17.98434 | 36171 ft | 422 kts | 319° |
| 2026-04-27 15:20 | 47.21539 | 17.92862 | 36178 ft | 422 kts | 319° |
| 2026-04-27 15:21 | 47.26000 | 17.87242 | 36184 ft | 422 kts | 319° |
| 2026-04-27 15:21 | 47.30458 | 17.81615 | 36182 ft | 422 kts | 319° |
| 2026-04-27 15:22 | 47.34905 | 17.75988 | 36193 ft | 421 kts | 319° |
| 2026-04-27 15:22 | 47.39316 | 17.70393 | 36177 ft | 421 kts | 319° |
| 2026-04-27 15:23 | 47.43751 | 17.64755 | 36181 ft | 421 kts | 319° |
| 2026-04-27 15:23 | 47.48186 | 17.59104 | 36185 ft | 421 kts | 319° |
| 2026-04-27 15:24 | 47.52621 | 17.53439 | 36182 ft | 421 kts | 319° |
| 2026-04-27 15:24 | 47.57027 | 17.47798 | 36184 ft | 422 kts | 319° |
| 2026-04-27 15:25 | 47.61470 | 17.42099 | 36163 ft | 423 kts | 319° |
| 2026-04-27 15:25 | 47.65815 | 17.36225 | 36172 ft | 423 kts | 316° |
| 2026-04-27 15:26 | 47.70028 | 17.30121 | 36175 ft | 424 kts | 316° |
| 2026-04-27 15:26 | 47.74268 | 17.24029 | 36167 ft | 424 kts | 316° |
| 2026-04-27 15:27 | 47.78500 | 17.17987 | 36185 ft | 425 kts | 316° |
| 2026-04-27 15:27 | 47.82401 | 17.11405 | 36181 ft | 425 kts | 306° |
| 2026-04-27 15:28 | 47.85388 | 17.03823 | 36160 ft | 426 kts | 296° |
| 2026-04-27 15:28 | 47.87744 | 16.95753 | 36167 ft | 425 kts | 295° |
| 2026-04-27 15:29 | 47.90045 | 16.87712 | 36166 ft | 424 kts | 295° |
| 2026-04-27 15:29 | 47.92369 | 16.79633 | 36173 ft | 424 kts | 295° |
| 2026-04-27 15:30 | 47.94699 | 16.71563 | 36179 ft | 424 kts | 295° |
| 2026-04-27 15:30 | 47.97029 | 16.63486 | 36185 ft | 424 kts | 295° |
| 2026-04-27 15:31 | 47.99341 | 16.55447 | 36183 ft | 425 kts | 295° |
| 2026-04-27 15:31 | 48.01666 | 16.47336 | 36184 ft | 425 kts | 295° |
| 2026-04-27 15:32 | 48.03988 | 16.39206 | 36164 ft | 426 kts | 295° |
| 2026-04-27 15:32 | 48.06306 | 16.31063 | 36154 ft | 426 kts | 295° |
| 2026-04-27 15:33 | 48.08618 | 16.22911 | 36163 ft | 426 kts | 295° |
| 2026-04-27 15:33 | 48.10913 | 16.14793 | 36167 ft | 427 kts | 295° |
| 2026-04-27 15:34 | 48.13219 | 16.06609 | 36164 ft | 427 kts | 295° |
| 2026-04-27 15:34 | 48.15521 | 15.98412 | 36148 ft | 427 kts | 295° |
| 2026-04-27 15:35 | 48.17817 | 15.90204 | 36160 ft | 427 kts | 295° |
| 2026-04-27 15:35 | 48.20092 | 15.82048 | 36161 ft | 427 kts | 294° |
| 2026-04-27 15:36 | 48.22374 | 15.73834 | 36182 ft | 427 kts | 294° |
| 2026-04-27 15:36 | 48.24652 | 15.65612 | 36168 ft | 426 kts | 294° |
| 2026-04-27 15:37 | 48.26916 | 15.57405 | 36152 ft | 425 kts | 294° |
| 2026-04-27 15:37 | 48.29153 | 15.49272 | 36158 ft | 424 kts | 294° |
| 2026-04-27 15:38 | 48.31394 | 15.41098 | 36164 ft | 423 kts | 294° |
| 2026-04-27 15:38 | 48.33624 | 15.32932 | 36165 ft | 422 kts | 294° |
| 2026-04-27 15:39 | 48.35847 | 15.24768 | 36165 ft | 422 kts | 294° |
| 2026-04-27 15:39 | 48.38064 | 15.16595 | 36169 ft | 422 kts | 294° |
| 2026-04-27 15:40 | 48.40259 | 15.08474 | 36160 ft | 421 kts | 294° |
| 2026-04-27 15:40 | 48.42461 | 15.00300 | 36160 ft | 421 kts | 294° |
| 2026-04-27 15:41 | 48.44656 | 14.92121 | 36161 ft | 421 kts | 294° |
| 2026-04-27 15:41 | 48.46846 | 14.83936 | 36159 ft | 421 kts | 294° |
| 2026-04-27 15:42 | 48.49028 | 14.75748 | 36160 ft | 421 kts | 293° |
| 2026-04-27 15:42 | 48.51189 | 14.67616 | 36160 ft | 420 kts | 293° |
| 2026-04-27 15:43 | 48.53355 | 14.59429 | 36157 ft | 420 kts | 293° |
| 2026-04-27 15:43 | 48.55516 | 14.51238 | 36163 ft | 420 kts | 293° |
| 2026-04-27 15:44 | 48.57674 | 14.43028 | 36141 ft | 421 kts | 293° |
| 2026-04-27 15:44 | 48.59810 | 14.34870 | 36146 ft | 420 kts | 293° |
| 2026-04-27 15:45 | 48.61952 | 14.26660 | 36154 ft | 420 kts | 292° |
| 2026-04-27 15:45 | 48.64093 | 14.18428 | 36158 ft | 421 kts | 292° |
| 2026-04-27 15:46 | 48.66229 | 14.10185 | 36169 ft | 421 kts | 292° |
| 2026-04-27 15:46 | 48.68359 | 14.01933 | 36140 ft | 421 kts | 292° |
| 2026-04-27 15:47 | 48.70465 | 13.93743 | 36153 ft | 420 kts | 292° |
| 2026-04-27 15:47 | 48.72576 | 13.85510 | 36145 ft | 419 kts | 292° |
| 2026-04-27 15:48 | 48.74679 | 13.77281 | 36148 ft | 418 kts | 292° |
| 2026-04-27 15:49 | 48.78950 | 13.65825 | 36154 ft | 417 kts | 307° |
| 2026-04-27 15:49 | 48.82535 | 13.58993 | 36161 ft | 417 kts | 308° |
| 2026-04-27 15:50 | 48.86184 | 13.52139 | 36155 ft | 418 kts | 308° |
| 2026-04-27 15:50 | 48.89829 | 13.45250 | 36155 ft | 419 kts | 308° |
| 2026-04-27 15:51 | 48.93467 | 13.38330 | 36155 ft | 419 kts | 308° |
| 2026-04-27 15:51 | 48.97079 | 13.31431 | 36156 ft | 420 kts | 307° |
| 2026-04-27 15:52 | 49.00715 | 13.24464 | 36163 ft | 420 kts | 307° |
| 2026-04-27 15:52 | 49.04350 | 13.17484 | 36156 ft | 420 kts | 307° |
| 2026-04-27 15:53 | 49.07975 | 13.10502 | 36164 ft | 420 kts | 307° |
| 2026-04-27 15:53 | 49.11574 | 13.03555 | 36163 ft | 420 kts | 307° |
| 2026-04-27 15:54 | 49.15191 | 12.96554 | 36158 ft | 420 kts | 307° |
| 2026-04-27 15:54 | 49.18804 | 12.89542 | 36165 ft | 419 kts | 307° |
| 2026-04-27 15:55 | 49.22408 | 12.82526 | 36162 ft | 419 kts | 307° |
| 2026-04-27 15:55 | 49.26010 | 12.75501 | 36167 ft | 419 kts | 307° |
| 2026-04-27 15:56 | 49.29582 | 12.68512 | 36171 ft | 419 kts | 307° |
| 2026-04-27 15:56 | 49.33172 | 12.61471 | 36166 ft | 419 kts | 307° |
| 2026-04-27 15:57 | 49.36754 | 12.54427 | 36156 ft | 418 kts | 306° |
| 2026-04-27 15:57 | 49.40327 | 12.47381 | 36165 ft | 418 kts | 306° |
| 2026-04-27 15:58 | 49.43869 | 12.40378 | 36167 ft | 418 kts | 306° |
| 2026-04-27 15:58 | 49.47437 | 12.33304 | 36164 ft | 419 kts | 306° |
| 2026-04-27 15:59 | 49.51005 | 12.26212 | 36168 ft | 419 kts | 306° |
| 2026-04-27 15:59 | 49.54573 | 12.19102 | 36171 ft | 420 kts | 306° |
| 2026-04-27 16:00 | 49.58119 | 12.12016 | 36155 ft | 421 kts | 306° |
| 2026-04-27 16:00 | 49.61687 | 12.04866 | 36148 ft | 421 kts | 306° |
| 2026-04-27 16:01 | 49.65252 | 11.97706 | 36151 ft | 421 kts | 306° |
| 2026-04-27 16:01 | 49.68811 | 11.90536 | 36147 ft | 421 kts | 306° |
| 2026-04-27 16:02 | 49.72340 | 11.83407 | 36147 ft | 420 kts | 306° |
| 2026-04-27 16:02 | 49.75886 | 11.76224 | 36149 ft | 420 kts | 305° |
| 2026-04-27 16:03 | 49.79429 | 11.69028 | 36157 ft | 420 kts | 305° |
| 2026-04-27 16:03 | 49.82969 | 11.61819 | 36164 ft | 421 kts | 305° |
| 2026-04-27 16:04 | 49.86508 | 11.54593 | 36175 ft | 421 kts | 305° |
| 2026-04-27 16:04 | 49.90019 | 11.47404 | 36178 ft | 421 kts | 305° |
| 2026-04-27 16:05 | 49.93552 | 11.40150 | 36176 ft | 422 kts | 305° |
| 2026-04-27 16:05 | 49.97087 | 11.32872 | 36164 ft | 422 kts | 304° |
| 2026-04-27 16:06 | 50.00620 | 11.25577 | 36183 ft | 422 kts | 304° |
| 2026-04-27 16:06 | 50.04125 | 11.18321 | 36186 ft | 422 kts | 304° |
| 2026-04-27 16:07 | 50.07650 | 11.11003 | 36189 ft | 422 kts | 304° |
| 2026-04-27 16:07 | 50.11168 | 11.03680 | 36183 ft | 422 kts | 304° |
| 2026-04-27 16:08 | 50.14683 | 10.96343 | 36175 ft | 422 kts | 304° |
| 2026-04-27 16:08 | 50.18168 | 10.89046 | 36183 ft | 422 kts | 304° |
| 2026-04-27 16:09 | 50.21671 | 10.81693 | 36186 ft | 422 kts | 304° |
| 2026-04-27 16:09 | 50.26915 | 10.70647 | 36189 ft | 421 kts | 304° |
| 2026-04-27 16:10 | 50.33871 | 10.55920 | 36199 ft | 421 kts | 304° |
| 2026-04-27 16:11 | 50.39060 | 10.44882 | 36193 ft | 422 kts | 304° |
| 2026-04-27 16:12 | 50.44268 | 10.33755 | 36198 ft | 422 kts | 304° |
| 2026-04-27 16:13 | 50.49469 | 10.22597 | 36193 ft | 422 kts | 303° |
| 2026-04-27 16:13 | 50.54648 | 10.11440 | 36190 ft | 422 kts | 303° |
| 2026-04-27 16:14 | 50.61536 | 9.96525 | 36198 ft | 423 kts | 303° |
| 2026-04-27 16:15 | 50.68434 | 9.81505 | 36199 ft | 423 kts | 303° |
| 2026-04-27 16:16 | 50.75294 | 9.66479 | 36191 ft | 424 kts | 303° |
| 2026-04-27 16:17 | 50.82162 | 9.51349 | 36191 ft | 423 kts | 303° |
| 2026-04-27 16:18 | 50.88984 | 9.36235 | 36203 ft | 423 kts | 302° |
| 2026-04-27 16:19 | 50.92400 | 9.28633 | 36200 ft | 423 kts | 302° |
| 2026-04-27 16:20 | 50.99214 | 9.13403 | 36168 ft | 421 kts | 302° |
| 2026-04-27 16:20 | 51.02571 | 9.05870 | 35337 ft | 414 kts | 302° |
| 2026-04-27 16:21 | 51.04202 | 9.02202 | 34935 ft | 409 kts | 302° |
| 2026-04-27 16:21 | 51.09135 | 8.91061 | 32601 ft | 419 kts | 302° |
| 2026-04-27 16:22 | 51.10814 | 8.87263 | 31862 ft | 420 kts | 302° |
| 2026-04-27 16:22 | 51.14156 | 8.79848 | 30526 ft | 422 kts | 305° |
| 2026-04-27 16:22 | 51.15984 | 8.76206 | 29935 ft | 419 kts | 306° |
| 2026-04-27 16:23 | 51.17818 | 8.72614 | 29365 ft | 415 kts | 306° |
| 2026-04-27 16:23 | 51.21426 | 8.65536 | 28227 ft | 408 kts | 306° |
| 2026-04-27 16:23 | 51.23178 | 8.62076 | 27653 ft | 405 kts | 306° |
| 2026-04-27 16:24 | 51.24939 | 8.58580 | 27102 ft | 403 kts | 305° |
| 2026-04-27 16:24 | 51.28413 | 8.51664 | 26072 ft | 397 kts | 305° |
| 2026-04-27 16:25 | 51.31851 | 8.44810 | 25030 ft | 393 kts | 306° |
| 2026-04-27 16:25 | 51.35611 | 8.38511 | 24072 ft | 390 kts | 312° |
| 2026-04-27 16:26 | 51.39488 | 8.32494 | 23000 ft | 386 kts | 312° |
| 2026-04-27 16:26 | 51.43274 | 8.26574 | 21981 ft | 380 kts | 312° |
| 2026-04-27 16:27 | 51.47028 | 8.20675 | 20981 ft | 376 kts | 312° |
| 2026-04-27 16:27 | 51.52620 | 8.11845 | 20406 ft | 377 kts | 312° |
| 2026-04-27 16:28 | 51.56342 | 8.05950 | 20409 ft | 375 kts | 312° |
| 2026-04-27 16:28 | 51.60028 | 8.00098 | 20403 ft | 375 kts | 312° |
| 2026-04-27 16:29 | 51.65597 | 7.91228 | 20410 ft | 376 kts | 312° |
| 2026-04-27 16:30 | 51.69311 | 7.85295 | 20406 ft | 376 kts | 312° |
| 2026-04-27 16:30 | 51.73024 | 7.79351 | 20410 ft | 376 kts | 312° |
| 2026-04-27 16:31 | 51.78561 | 7.70458 | 20411 ft | 376 kts | 312° |
| 2026-04-27 16:31 | 51.82266 | 7.64489 | 20417 ft | 377 kts | 312° |
| 2026-04-27 16:32 | 51.85978 | 7.58494 | 20417 ft | 378 kts | 312° |
| 2026-04-27 16:32 | 51.87838 | 7.55484 | 20416 ft | 378 kts | 312° |
| 2026-04-27 16:33 | 51.91558 | 7.49453 | 20418 ft | 379 kts | 312° |
| 2026-04-27 16:33 | 51.93393 | 7.46473 | 20415 ft | 379 kts | 312° |
| 2026-04-27 16:33 | 51.95254 | 7.43447 | 20416 ft | 379 kts | 312° |
| 2026-04-27 16:33 | 51.97112 | 7.40422 | 20416 ft | 379 kts | 312° |
| 2026-04-27 16:34 | 51.98972 | 7.37390 | 20428 ft | 379 kts | 312° |
| 2026-04-27 16:34 | 52.00827 | 7.34361 | 20427 ft | 379 kts | 312° |
| 2026-04-27 16:34 | 52.02682 | 7.31330 | 20371 ft | 379 kts | 312° |
| 2026-04-27 16:34 | 52.04541 | 7.28289 | 20302 ft | 379 kts | 312° |
| 2026-04-27 16:35 | 52.06393 | 7.25254 | 20266 ft | 378 kts | 312° |
| 2026-04-27 16:35 | 52.08243 | 7.22220 | 20238 ft | 378 kts | 312° |
| 2026-04-27 16:35 | 52.11923 | 7.16174 | 20234 ft | 379 kts | 312° |
| 2026-04-27 16:36 | 52.13779 | 7.13118 | 20231 ft | 379 kts | 312° |
| 2026-04-27 16:36 | 52.15579 | 7.09992 | 20212 ft | 378 kts | 308° |
| 2026-04-27 16:36 | 52.17213 | 7.06641 | 20245 ft | 377 kts | 306° |
| 2026-04-27 16:36 | 52.18832 | 7.03286 | 20237 ft | 378 kts | 306° |
| 2026-04-27 16:37 | 52.20466 | 6.99926 | 20237 ft | 378 kts | 306° |
| 2026-04-27 16:37 | 52.22105 | 6.96574 | 20236 ft | 378 kts | 307° |
| 2026-04-27 16:37 | 52.23763 | 6.93246 | 20231 ft | 378 kts | 307° |
| 2026-04-27 16:37 | 52.25409 | 6.89967 | 20212 ft | 378 kts | 307° |
| 2026-04-27 16:38 | 52.27069 | 6.86658 | 19977 ft | 375 kts | 307° |
| 2026-04-27 16:38 | 52.28689 | 6.83416 | 19897 ft | 363 kts | 307° |
| 2026-04-27 16:38 | 52.30252 | 6.80280 | 19775 ft | 344 kts | 307° |
| 2026-04-27 16:38 | 52.31734 | 6.77377 | 19477 ft | 323 kts | 313° |
| 2026-04-27 16:39 | 52.33526 | 6.75299 | 18924 ft | 315 kts | 333° |
| 2026-04-27 16:39 | 52.35608 | 6.74257 | 18164 ft | 314 kts | 349° |
| 2026-04-27 16:39 | 52.37782 | 6.73953 | 17298 ft | 313 kts | 354° |
| 2026-04-27 16:39 | 52.39947 | 6.73786 | 16492 ft | 310 kts | 354° |
| 2026-04-27 16:40 | 52.42093 | 6.73634 | 15739 ft | 307 kts | 354° |
| 2026-04-27 16:40 | 52.44184 | 6.73475 | 15023 ft | 303 kts | 354° |
| 2026-04-27 16:40 | 52.46277 | 6.73303 | 14296 ft | 300 kts | 354° |
| 2026-04-27 16:40 | 52.48350 | 6.73122 | 13541 ft | 297 kts | 354° |
| 2026-04-27 16:41 | 52.50405 | 6.72936 | 12757 ft | 294 kts | 354° |
| 2026-04-27 16:41 | 52.52430 | 6.72750 | 12021 ft | 290 kts | 354° |
| 2026-04-27 16:41 | 52.54439 | 6.72564 | 11296 ft | 287 kts | 354° |
| 2026-04-27 16:41 | 52.56425 | 6.72379 | 10593 ft | 284 kts | 354° |
| 2026-04-27 16:42 | 52.58390 | 6.72195 | 9884 ft | 282 kts | 353° |
| 2026-04-27 16:42 | 52.60340 | 6.72011 | 9141 ft | 279 kts | 354° |
| 2026-04-27 16:42 | 52.62244 | 6.71832 | 8423 ft | 277 kts | 354° |
| 2026-04-27 16:42 | 52.64180 | 6.71649 | 7737 ft | 273 kts | 354° |
| 2026-04-27 16:43 | 52.66043 | 6.71472 | 7483 ft | 273 kts | 355° |
| 2026-04-27 16:43 | 52.67932 | 6.71003 | 7297 ft | 279 kts | 336° |
| 2026-04-27 16:43 | 52.69462 | 6.69154 | 7269 ft | 272 kts | 306° |
| 2026-04-27 16:43 | 52.70225 | 6.66369 | 7273 ft | 267 kts | 279° |
| 2026-04-27 16:44 | 52.70235 | 6.63319 | 7241 ft | 267 kts | 258° |
| 2026-04-27 16:44 | 52.69754 | 6.60344 | 7259 ft | 271 kts | 254° |
| 2026-04-27 16:44 | 52.69226 | 6.57345 | 7159 ft | 270 kts | 254° |
| 2026-04-27 16:44 | 52.68698 | 6.54395 | 6659 ft | 267 kts | 254° |
| 2026-04-27 16:45 | 52.68175 | 6.51485 | 6235 ft | 269 kts | 254° |
| 2026-04-27 16:45 | 52.67643 | 6.48522 | 5862 ft | 270 kts | 254° |
| 2026-04-27 16:45 | 52.67113 | 6.45557 | 5514 ft | 269 kts | 254° |
| 2026-04-27 16:45 | 52.66587 | 6.42604 | 5205 ft | 268 kts | 254° |
| 2026-04-27 16:46 | 52.66064 | 6.39663 | 4910 ft | 267 kts | 254° |
| 2026-04-27 16:46 | 52.65543 | 6.36731 | 4605 ft | 266 kts | 254° |
| 2026-04-27 16:46 | 52.65024 | 6.33808 | 4271 ft | 266 kts | 255° |
| 2026-04-27 16:46 | 52.64505 | 6.30889 | 3938 ft | 265 kts | 254° |
| 2026-04-27 16:47 | 52.63996 | 6.28023 | 3634 ft | 264 kts | 255° |
| 2026-04-27 16:47 | 52.63480 | 6.25125 | 3291 ft | 264 kts | 255° |
| 2026-04-27 16:47 | 52.62967 | 6.22240 | 2995 ft | 262 kts | 254° |
| 2026-04-27 16:47 | 52.62454 | 6.19362 | 2671 ft | 262 kts | 254° |
| 2026-04-27 16:48 | 52.61949 | 6.16536 | 2566 ft | 252 kts | 254° |
| 2026-04-27 16:48 | 52.61463 | 6.13822 | 2449 ft | 243 kts | 254° |
| 2026-04-27 16:48 | 52.60993 | 6.11208 | 2253 ft | 234 kts | 254° |
| 2026-04-27 16:49 | 52.60099 | 6.06220 | 2031 ft | 226 kts | 255° |
| 2026-04-27 16:49 | 52.59654 | 6.03747 | 1982 ft | 226 kts | 255° |
| 2026-04-27 16:49 | 52.59209 | 6.01282 | 1973 ft | 224 kts | 255° |
| 2026-04-27 16:49 | 52.58767 | 5.98826 | 1964 ft | 225 kts | 255° |
| 2026-04-27 16:50 | 52.58322 | 5.96355 | 1994 ft | 227 kts | 255° |
| 2026-04-27 16:50 | 52.57873 | 5.93876 | 1973 ft | 225 kts | 255° |
| 2026-04-27 16:50 | 52.57431 | 5.91434 | 1945 ft | 223 kts | 255° |
| 2026-04-27 16:50 | 52.56986 | 5.88977 | 1968 ft | 225 kts | 255° |
| 2026-04-27 16:51 | 52.56539 | 5.86502 | 1974 ft | 227 kts | 255° |
| 2026-04-27 16:51 | 52.56091 | 5.84045 | 1977 ft | 228 kts | 255° |
| 2026-04-27 16:51 | 52.55640 | 5.81561 | 1962 ft | 226 kts | 254° |
| 2026-04-27 16:51 | 52.55191 | 5.79099 | 1977 ft | 225 kts | 254° |
| 2026-04-27 16:52 | 52.54734 | 5.76612 | 1981 ft | 229 kts | 255° |
| 2026-04-27 16:52 | 52.54278 | 5.74107 | 1979 ft | 228 kts | 255° |
| 2026-04-27 16:52 | 52.53828 | 5.71630 | 1971 ft | 225 kts | 255° |
| 2026-04-27 16:52 | 52.53380 | 5.69190 | 1951 ft | 223 kts | 255° |
| 2026-04-27 16:53 | 52.52925 | 5.66710 | 1989 ft | 231 kts | 254° |
| 2026-04-27 16:53 | 52.52460 | 5.64189 | 1969 ft | 233 kts | 254° |
| 2026-04-27 16:53 | 52.50855 | 5.55662 | 1798 ft | 219 kts | 246° |
| 2026-04-27 16:53 | 52.50058 | 5.53415 | 1952 ft | 238 kts | 238° |
| 2026-04-27 16:54 | 52.49166 | 5.51068 | 1964 ft | 244 kts | 239° |
| 2026-04-27 16:54 | 52.48286 | 5.48690 | 1963 ft | 242 kts | 239° |
| 2026-04-27 16:54 | 52.47426 | 5.46331 | 1979 ft | 239 kts | 239° |
| 2026-04-27 16:54 | 52.46574 | 5.43989 | 1962 ft | 239 kts | 239° |
| 2026-04-27 16:55 | 52.45726 | 5.41642 | 1966 ft | 241 kts | 239° |
| 2026-04-27 16:55 | 52.44872 | 5.39269 | 1974 ft | 243 kts | 239° |
| 2026-04-27 16:55 | 52.44013 | 5.36877 | 1975 ft | 242 kts | 240° |
| 2026-04-27 16:55 | 52.43179 | 5.34552 | 1975 ft | 236 kts | 240° |
| 2026-04-27 16:56 | 52.42372 | 5.32301 | 1980 ft | 224 kts | 239° |
| 2026-04-27 16:56 | 52.41598 | 5.30141 | 1995 ft | 220 kts | 239° |
| 2026-04-27 16:56 | 52.40823 | 5.27981 | 1967 ft | 219 kts | 239° |
| 2026-04-27 16:56 | 52.40050 | 5.25830 | 1969 ft | 218 kts | 240° |
| 2026-04-27 16:57 | 52.39545 | 5.24413 | 1899 ft | 218 kts | 240° |
| 2026-04-27 16:57 | 52.38509 | 5.21525 | 1721 ft | 220 kts | 241° |
| 2026-04-27 16:57 | 52.37741 | 5.19389 | 1621 ft | 215 kts | 240° |
| 2026-04-27 16:57 | 52.36989 | 5.17298 | 1389 ft | 215 kts | 240° |
| 2026-04-27 16:58 | 52.36246 | 5.15233 | 1330 ft | 206 kts | 240° |
| 2026-04-27 16:58 | 52.35508 | 5.13184 | 1287 ft | 210 kts | 240° |
| 2026-04-27 16:58 | 52.34768 | 5.11126 | 1271 ft | 210 kts | 241° |
| 2026-04-27 16:58 | 52.34032 | 5.09087 | 1262 ft | 205 kts | 241° |
| 2026-04-27 16:59 | 52.33327 | 5.07134 | 1263 ft | 195 kts | 241° |
| 2026-04-27 16:59 | 52.32661 | 5.05289 | 1276 ft | 185 kts | 240° |
| 2026-04-27 16:59 | 52.32014 | 5.03499 | 1242 ft | 179 kts | 240° |
| 2026-04-27 16:59 | 52.31372 | 5.01720 | 1274 ft | 183 kts | 240° |
| 2026-04-27 17:00 | 52.30515 | 4.99349 | 1259 ft | 181 kts | 241° |
| 2026-04-27 17:00 | 52.29453 | 4.96410 | 1260 ft | 180 kts | 240° |
| 2026-04-27 17:00 | 52.28810 | 4.94646 | 1233 ft | 185 kts | 241° |
| 2026-04-27 17:01 | 52.28152 | 4.92825 | 1284 ft | 187 kts | 239° |
| 2026-04-27 17:01 | 52.27493 | 4.91008 | 1271 ft | 186 kts | 240° |
| 2026-04-27 17:01 | 52.26839 | 4.89207 | 1271 ft | 184 kts | 240° |
| 2026-04-27 17:01 | 52.26189 | 4.87419 | 1272 ft | 182 kts | 240° |
| 2026-04-27 17:02 | 52.25542 | 4.85643 | 1275 ft | 181 kts | 240° |
| 2026-04-27 17:02 | 52.24899 | 4.83879 | 1250 ft | 179 kts | 239° |
| 2026-04-27 17:02 | 52.24266 | 4.82145 | 1273 ft | 178 kts | 240° |
| 2026-04-27 17:02 | 52.23762 | 4.80346 | 1230 ft | 171 kts | 266° |
| 2026-04-27 17:03 | 52.24062 | 4.78547 | 1284 ft | 169 kts | 312° |
| 2026-04-27 17:03 | 52.25000 | 4.77555 | 1283 ft | 160 kts | 348° |
| 2026-04-27 17:03 | 52.26118 | 4.77499 | 994 ft | 165 kts | 8° |
| 2026-04-27 17:03 | 52.27245 | 4.77596 | 546 ft | 159 kts | 4° |
| 2026-04-27 17:04 | 52.28317 | 4.77677 | 201 ft | 149 kts | 5° |
| 2026-04-27 17:04 | 52.29387 | 4.77763 | 23 ft | 153 kts | 5° |
| 2026-04-27 17:04 | 52.29957 | 4.77813 | 17 ft | 5 kts | 3° |
| 2026-04-27 17:04 | 52.29958 | 4.77813 | 17 ft | 1 kts | 3° |
| 2026-04-27 17:05 | 52.30045 | 4.77822 | 19 ft | 23 kts | 3° |
| 2026-04-27 17:05 | 52.30266 | 4.77844 | 25 ft | 41 kts | 3° |
| 2026-04-27 17:05 | 52.30475 | 4.77766 | 27 ft | 25 kts | 334° |
| 2026-04-27 17:05 | 52.30565 | 4.77693 | 22 ft | 14 kts | 334° |
| 2026-04-27 17:06 | 52.30588 | 4.77675 | 21 ft | 0 kts | 333° |
| 2026-04-27 17:07 | 52.30592 | 4.77671 | 20 ft | 3 kts | 333° |
| 2026-04-27 17:07 | 52.30645 | 4.77628 | 19 ft | 15 kts | 334° |
| 2026-04-27 17:07 | 52.30774 | 4.77598 | 18 ft | 23 kts | 3° |
| 2026-04-27 17:08 | 52.30930 | 4.77613 | 17 ft | 23 kts | 3° |
| 2026-04-27 17:08 | 52.31083 | 4.77626 | 19 ft | 19 kts | 358° |
| 2026-04-27 17:08 | 52.31191 | 4.77519 | 16 ft | 19 kts | 343° |
| 2026-04-27 17:08 | 52.31309 | 4.77463 | 13 ft | 4 kts | 325° |
| 2026-04-27 17:09 | 52.31339 | 4.77422 | 11 ft | 7 kts | 314° |
| 2026-04-27 17:09 | 52.31378 | 4.77353 | 10 ft | 9 kts | 311° |
| 2026-04-27 17:09 | 52.31419 | 4.77278 | 11 ft | 9 kts | 311° |
| 2026-04-27 17:09 | 52.31459 | 4.77198 | 11 ft | 9 kts | 304° |
| 2026-04-27 17:10 | 52.31480 | 4.77102 | 12 ft | 9 kts | 280° |
| 2026-04-27 17:10 | 52.31482 | 4.76999 | 13 ft | 9 kts | 268° |
| 2026-04-27 17:10 | 52.31481 | 4.76889 | 13 ft | 11 kts | 268° |
| 2026-04-27 17:10 | 52.31475 | 4.76718 | 14 ft | 19 kts | 266° |
| 2026-04-27 17:11 | 52.31465 | 4.76476 | 18 ft | 24 kts | 266° |
| 2026-04-27 17:11 | 52.31439 | 4.76006 | 17 ft | 7 kts | 224° |
| 2026-04-27 17:11 | 52.31403 | 4.76025 | 14 ft | 10 kts | 149° |
| 2026-04-27 17:12 | 52.31367 | 4.76061 | 13 ft | 0 kts | 149° |